Time;durP1;ratioP1;P1;durP2;ratioP2;P2;SDS_P1;SDS_P2;PMS_P1;PMS_P2;Temp;Humidity;BMP_temperature;BMP_pressure;BME280_temperature;BME280_humidity;BME280_pressure;Samples;Min_cycle;Max_cycle;Signal;HPM_P1;HPM_P2
2022/11/28 00:01:45;;;;;;;31.30;16.70;;;;;;;1.76;90.30;102240.55;105358;1268;59068;-77
2022/11/28 00:04:14;;;;;;;31.80;15.60;;;;;;;1.74;90.05;102241.95;105080;1280;57697;-78
2022/11/28 00:06:48;;;;;;;33.40;17.00;;;;;;;1.77;89.95;102241.05;105170;1268;72823;-78
2022/11/28 00:09:20;;;;;;;31.80;14.70;;;;;;;1.76;89.85;102241.07;105226;1279;72976;-77
2022/11/28 00:11:49;;;;;;;27.90;14.90;;;;;;;1.77;90.22;102242.60;105176;1269;71188;-77
2022/11/28 00:14:19;;;;;;;30.60;16.20;;;;;;;1.73;90.10;102242.47;105119;1268;62904;-76
2022/11/28 00:16:48;;;;;;;33.90;15.80;;;;;;;1.68;90.56;102242.20;105075;1273;62122;-74
2022/11/28 00:19:17;;;;;;;32.30;16.40;;;;;;;1.70;90.64;102243.19;105005;1273;58769;-74
2022/11/28 00:21:46;;;;;;;28.80;15.20;;;;;;;1.74;90.01;102241.94;105120;1273;73160;-76
2022/11/28 00:24:15;;;;;;;30.90;15.90;;;;;;;1.70;89.87;102237.70;105194;1277;71909;-75
2022/11/28 00:26:44;;;;;;;32.50;16.20;;;;;;;1.68;90.60;102240.30;105206;1265;59624;-74
2022/11/28 00:29:13;;;;;;;32.40;15.50;;;;;;;1.70;90.53;102238.73;105062;1269;73286;-74
2022/11/28 00:31:42;;;;;;;30.40;15.00;;;;;;;1.71;89.84;102236.66;105058;1268;61988;-73
2022/11/28 00:34:14;;;;;;;31.70;15.50;;;;;;;1.70;89.54;102238.89;105117;1273;61305;-74
2022/11/28 00:36:45;;;;;;;33.10;15.80;;;;;;;1.71;89.49;102241.47;105155;1273;74119;-79
2022/11/28 00:39:15;;;;;;;29.20;15.40;;;;;;;1.63;89.56;102238.63;104995;1274;62065;-75
2022/11/28 00:41:44;;;;;;;32.70;15.80;;;;;;;1.71;90.39;102250.40;105155;1268;60013;-77
2022/11/28 00:44:14;;;;;;;32.20;15.70;;;;;;;1.71;89.90;102244.21;105087;1279;72234;-75
2022/11/28 00:46:42;;;;;;;32.10;16.20;;;;;;;1.67;89.55;102236.55;105003;1278;61960;-75
2022/11/28 00:49:12;;;;;;;34.50;16.50;;;;;;;1.69;90.11;102229.98;105174;1261;58733;-74
2022/11/28 00:51:40;;;;;;;29.80;15.80;;;;;;;1.73;90.86;102233.03;107264;1267;74087;-75
2022/11/28 00:54:09;;;;;;;30.20;15.20;;;;;;;1.78;88.82;102232.61;107385;1273;61986;-74
2022/11/28 00:56:39;;;;;;;35.50;16.90;;;;;;;1.78;87.77;102233.98;105403;1267;59977;-72
2022/11/28 00:59:08;;;;;;;36.00;16.70;;;;;;;1.82;87.58;102234.48;107350;1261;73175;-75
2022/11/28 01:01:41;;;;;;;35.90;16.70;;;;;;;1.84;87.41;102228.59;107067;1274;62432;-73
2022/11/28 01:04:13;;;;;;;;;;;;;;;1.86;87.56;102225.98;107039;1270;60622;-76
2022/11/28 01:06:51;;;;;;;33.50;16.30;;;;;;;1.83;87.68;102227.92;105190;1271;64287;-75
2022/11/28 01:09:22;;;;;;;32.40;15.70;;;;;;;1.81;87.33;102229.83;105223;1274;61602;-75
2022/11/28 01:11:53;;;;;;;31.30;15.60;;;;;;;1.79;88.19;102230.20;105109;1268;60008;-74
2022/11/28 01:14:24;;;;;;;33.40;16.20;;;;;;;1.80;87.80;102230.88;105201;1274;64280;-72
2022/11/28 01:16:53;;;;;;;32.60;15.70;;;;;;;1.79;87.49;102228.66;104966;1275;59006;-73
2022/11/28 01:19:22;;;;;;;32.10;15.40;;;;;;;1.80;88.05;102226.23;105101;1265;58936;-74
2022/11/28 01:21:51;;;;;;;33.00;15.30;;;;;;;1.80;88.14;102216.63;105159;1268;73191;-74
2022/11/28 01:24:19;;;;;;;31.00;15.50;;;;;;;1.76;87.49;102213.58;107347;1263;63402;-78
2022/11/28 01:26:48;;;;;;;32.60;15.90;;;;;;;1.72;87.87;102215.00;107329;1264;60366;-79
2022/11/28 01:29:17;;;;;;;34.60;15.90;;;;;;;1.76;87.76;102216.15;107384;1268;73371;-80
2022/11/28 01:31:45;;;;;;;28.20;15.00;;;;;;;1.81;87.58;102212.83;107384;1273;62336;-74
2022/11/28 01:34:15;;;;;;;33.60;17.20;;;;;;;1.84;88.08;102213.13;107311;1265;57709;-74
2022/11/28 01:36:44;;;;;;;34.30;15.90;;;;;;;1.81;88.33;102210.59;107381;1268;62938;-74
2022/11/28 01:39:14;;;;;;;33.40;15.60;;;;;;;1.84;88.49;102210.55;107490;1259;61491;-74
2022/11/28 01:41:43;;;;;;;28.80;15.90;;;;;;;1.77;88.66;102208.59;107405;1265;59840;-74
2022/11/28 01:44:14;;;;;;;28.70;15.10;;;;;;;1.74;89.04;102206.91;107331;1261;73571;-74
2022/11/28 01:46:43;;;;;;;35.30;16.60;;;;;;;1.76;89.01;102204.46;107280;1264;61411;-75
2022/11/28 01:49:17;;;;;;;33.30;16.60;;;;;;;1.75;88.76;102194.19;107306;1268;62060;-74
2022/11/28 01:52:06;;;;;;;35.20;16.20;;;;;;;1.73;88.85;102197.64;107333;1268;63342;-74
2022/11/28 01:54:36;;;;;;;31.10;15.10;;;;;;;1.75;88.73;102201.23;107443;1259;60982;-74
2022/11/28 01:57:10;;;;;;;28.10;15.10;;;;;;;1.73;89.10;102207.25;107386;1264;59127;-77
2022/11/28 01:59:48;;;;;;;29.50;15.00;;;;;;;1.75;89.06;102209.64;107288;1277;63842;-74
2022/11/28 02:02:56;;;;;;;28.70;15.20;;;;;;;1.69;89.07;102216.92;107260;1271;61103;-74
2022/11/28 02:05:25;;;;;;;29.30;15.10;;;;;;;1.71;89.30;102218.11;107326;1265;61982;-74
2022/11/28 02:07:53;;;;;;;29.00;15.00;;;;;;;1.66;89.48;102207.52;107196;1276;63747;-73
2022/11/28 02:10:50;;;;;;;33.40;15.80;;;;;;;1.63;89.49;102195.70;107472;1268;70413;-73
2022/11/28 02:13:46;;;;;;;30.50;15.60;;;;;;;1.59;89.45;102188.19;107391;1263;59176;-73
2022/11/28 02:16:49;;;;;;;32.00;15.00;;;;;;;1.43;90.68;102184.08;107284;1263;73166;-74
2022/11/28 02:19:58;;;;;;;30.60;16.00;;;;;;;1.40;90.58;102184.11;107340;1268;62305;-75
2022/11/28 02:22:45;;;;;;;31.40;14.70;;;;;;;1.38;90.60;102191.35;107360;1264;61632;-75
2022/11/28 02:25:30;;;;;;;27.40;14.30;;;;;;;1.46;89.81;102195.20;107362;1261;72632;-75
2022/11/28 02:28:39;;;;;;;28.20;14.50;;;;;;;1.45;88.97;102190.23;107483;1268;61658;-75
2022/11/28 02:31:32;;;;;;;28.50;14.20;;;;;;;1.48;88.71;102190.20;107346;1265;59985;-74
2022/11/28 02:34:24;;;;;;;28.40;14.60;;;;;;;1.50;88.45;102190.17;107336;1264;72137;-75
2022/11/28 02:37:07;;;;;;;29.80;14.60;;;;;;;1.51;88.53;102191.02;107242;1265;62588;-74
2022/11/28 02:40:08;;;;;;;29.10;15.00;;;;;;;1.48;88.29;102191.92;107253;1271;57732;-74
2022/11/28 02:43:02;;;;;;;26.40;14.40;;;;;;;1.51;88.50;102186.23;107282;1265;70925;-74
2022/11/28 02:45:49;;;;;;;;;;;;;;;1.51;88.24;102186.55;107460;1273;61804;-75
2022/11/28 02:48:58;;;;;;;29.50;14.30;;;;;;;1.41;88.68;102178.08;107336;1268;60014;-75
2022/11/28 02:51:39;;;;;;;30.80;15.20;;;;;;;1.36;89.91;102177.80;107295;1265;63248;-75
2022/11/28 02:54:13;;;;;;;28.70;14.20;;;;;;;1.45;89.43;102181.98;107250;1265;57640;-74
2022/11/28 02:56:50;;;;;;;30.40;14.20;;;;;;;1.47;89.11;102179.39;107269;1265;57112;-74
2022/11/28 02:59:37;;;;;;;37.90;18.10;;;;;;;1.48;89.13;102180.08;107318;1265;72754;-74
2022/11/28 03:02:26;;;;;;;36.10;17.50;;;;;;;1.46;89.17;102183.00;107424;1265;70664;-75
2022/11/28 03:05:07;;;;;;;34.30;17.10;;;;;;;1.43;89.35;102178.59;107232;1270;68224;-75
2022/11/28 03:07:54;;;;;;;32.10;16.10;;;;;;;1.42;89.22;102176.19;107333;1268;72572;-75
2022/11/28 03:10:44;;;;;;;34.80;16.70;;;;;;;1.38;89.24;102176.06;107295;1265;57894;-76
2022/11/28 03:13:46;;;;;;;30.00;15.60;;;;;;;1.33;89.26;102171.48;107312;1266;61720;-76
2022/11/28 03:16:37;;;;;;;28.10;15.00;;;;;;;1.25;90.22;102166.24;107226;1271;73417;-75
2022/11/28 03:19:21;;;;;;;31.20;15.30;;;;;;;1.14;91.06;102163.63;107389;1269;61703;-76
2022/11/28 03:21:52;;;;;;;;;;;;;;;1.10;91.62;102160.39;107238;1265;69704;-76
2022/11/28 03:24:32;;;;;;;29.00;14.40;;;;;;;1.09;93.00;102164.17;107308;1268;72308;-77
2022/11/28 03:27:22;;;;;;;30.50;15.30;;;;;;;1.12;91.54;102169.30;107284;1268;57066;-76
2022/11/28 03:30:07;;;;;;;32.70;14.60;;;;;;;1.12;90.62;102173.41;107233;1272;57140;-76
2022/11/28 03:32:39;;;;;;;31.60;14.60;;;;;;;1.15;90.47;102178.89;107269;1270;71615;-77
2022/11/28 03:35:17;;;;;;;30.40;14.40;;;;;;;1.12;90.69;102182.86;107351;1268;71491;-77
2022/11/28 03:38:21;;;;;;;28.20;15.60;;;;;;;1.13;91.33;102188.00;107213;1271;59508;-76
2022/11/28 03:40:55;;;;;;;29.40;14.60;;;;;;;1.15;91.39;102190.55;107294;1268;73956;-76
2022/11/28 03:43:31;;;;;;;30.10;15.40;;;;;;;1.11;91.58;102187.49;107246;1268;61748;-77
2022/11/28 03:46:07;;;;;;;27.70;14.90;;;;;;;1.12;91.79;102185.08;107234;1265;57813;-76
2022/11/28 03:48:45;;;;;;;30.30;15.40;;;;;;;1.10;92.11;102185.45;107233;1277;71044;-76
2022/11/28 03:51:24;;;;;;;29.70;14.90;;;;;;;1.09;91.96;102183.58;107340;1264;71882;-76
2022/11/28 03:54:10;;;;;;;29.60;14.80;;;;;;;1.07;91.85;102183.41;107382;1266;60241;-76
2022/11/28 03:56:51;;;;;;;34.20;15.40;;;;;;;1.06;91.59;102186.34;107222;1265;73097;-79
2022/11/28 03:59:43;;;;;;;26.20;13.60;;;;;;;1.05;92.08;102189.08;107239;1269;57745;-76
2022/11/28 04:02:29;;;;;;;30.50;15.70;;;;;;;1.04;91.57;102190.47;107242;1271;57127;-76
2022/11/28 04:05:27;;;;;;;30.00;15.00;;;;;;;0.99;93.04;102192.41;107262;1261;73247;-75
2022/11/28 04:08:18;;;;;;;30.80;14.90;;;;;;;0.98;92.60;102194.13;107378;1260;71858;-76
2022/11/28 04:11:08;;;;;;;32.50;15.40;;;;;;;1.02;92.35;102197.88;107189;1271;70109;-76
2022/11/28 04:14:07;;;;;;;29.10;14.60;;;;;;;1.04;91.89;102204.21;107126;1265;72668;-76
2022/11/28 04:17:28;;;;;;;34.60;16.80;;;;;;;1.02;91.37;102207.48;107228;1266;62555;-75
2022/11/28 04:20:17;;;;;;;35.60;16.80;;;;;;;1.05;91.25;102208.66;107246;1257;60912;-74
2022/11/28 04:23:00;;;;;;;40.10;18.80;;;;;;;1.05;90.95;102209.85;107470;1265;64043;-75
2022/11/28 04:25:33;;;;;;;34.80;17.20;;;;;;;1.04;90.87;102211.92;107351;1262;62051;-76
2022/11/28 04:28:13;;;;;;;31.60;16.60;;;;;;;1.00;90.94;102210.59;107387;1266;71003;-74
2022/11/28 04:30:44;;;;;;;37.30;18.20;;;;;;;0.99;91.37;102213.16;107267;1274;72231;-75
2022/11/28 04:33:16;;;;;;;35.00;17.20;;;;;;;0.99;91.62;102209.22;107274;1267;60499;-75
2022/11/28 04:35:50;;;;;;;35.40;16.20;;;;;;;1.03;91.22;102214.16;107271;1259;61092;-75
2022/11/28 04:38:23;;;;;;;27.70;15.30;;;;;;;1.03;90.89;102206.27;107291;1269;72062;-74
2022/11/28 04:41:16;;;;;;;;;;;;;;;1.08;90.69;102222.01;107347;1274;61514;-78
2022/11/28 04:44:02;;;;;;;28.70;15.30;;;;;;;1.08;90.60;102224.92;107330;1265;69708;-75
2022/11/28 04:46:39;;;;;;;27.20;14.40;;;;;;;1.06;90.58;102223.05;107257;1265;73869;-74
2022/11/28 04:49:09;;;;;;;29.70;14.70;;;;;;;1.10;90.48;102223.36;107460;1269;63278;-74
2022/11/28 04:52:19;;;;;;;32.60;15.70;;;;;;;1.13;90.55;102228.84;107289;1265;61496;-76
2022/11/28 04:55:27;;;;;;;31.10;15.90;;;;;;;1.10;90.56;102225.60;107310;1265;73497;-74
2022/11/28 04:58:21;;;;;;;32.00;16.30;;;;;;;1.18;90.32;102227.23;107454;1265;70880;-74
2022/11/28 05:00:53;;;;;;;40.40;19.50;;;;;;;1.24;90.08;102229.08;107392;1264;59875;-72
2022/11/28 05:03:27;;;;;;;39.00;19.40;;;;;;;1.23;89.29;102229.60;107424;1259;74469;-75
2022/11/28 05:05:56;;;;;;;34.20;18.80;;;;;;;1.21;89.26;102227.89;107323;1261;62610;-75
2022/11/28 05:08:24;;;;;;;78.50;34.10;;;;;;;1.27;89.14;102230.42;107366;1265;60560;-77
2022/11/28 05:10:53;;;;;;;82.00;36.50;;;;;;;1.28;88.17;102229.20;107462;1268;62872;-86
2022/11/28 05:13:22;;;;;;;50.40;26.20;;;;;;;1.30;88.00;102225.77;107505;1266;60808;-85
2022/11/28 05:15:51;;;;;;;35.00;18.90;;;;;;;1.29;87.84;102225.08;107500;1266;69534;-83
2022/11/28 05:18:20;;;;;;;32.90;17.70;;;;;;;1.31;87.75;102225.92;107415;1263;74449;-86
2022/11/28 05:20:48;;;;;;;33.10;16.60;;;;;;;1.32;87.33;102225.21;107485;1265;60034;-79
2022/11/28 05:23:19;;;;;;;34.20;16.70;;;;;;;1.36;87.58;102225.52;107319;1270;57793;-77
2022/11/28 05:25:47;;;;;;;32.40;15.70;;;;;;;1.35;86.81;102230.85;107391;1268;72681;-81
2022/11/28 05:28:16;;;;;;;29.40;14.70;;;;;;;1.26;86.64;102233.34;107486;1268;61855;-80
2022/11/28 05:30:57;;;;;;;31.60;14.30;;;;;;;1.34;86.44;102235.84;107451;1259;68503;-81
2022/11/28 05:33:27;;;;;;;39.00;21.50;;;;;;;1.37;86.42;102239.25;107358;1259;72959;-79
2022/11/28 05:36:02;;;;;;;37.00;18.70;;;;;;;1.22;86.38;102237.67;107388;1264;61652;-80
2022/11/28 05:38:35;;;;;;;38.20;18.40;;;;;;;1.30;87.06;102241.38;107362;1268;57663;-80
2022/11/28 05:41:04;;;;;;;35.20;16.40;;;;;;;1.27;87.46;102242.44;107232;1271;72782;-82
2022/11/28 05:43:33;;;;;;;33.30;16.00;;;;;;;1.26;87.62;102244.67;107271;1266;70510;-81
2022/11/28 05:46:05;;;;;;;55.40;28.40;;;;;;;1.23;87.93;102248.64;107156;1263;68652;-82
2022/11/28 05:48:34;;;;;;;42.40;21.40;;;;;;;1.13;88.49;102246.68;107218;1265;72135;-81
2022/11/28 05:51:04;;;;;;;59.10;29.00;;;;;;;1.16;88.19;102247.85;107200;1261;60479;-82
2022/11/28 05:53:34;;;;;;;51.90;24.60;;;;;;;1.24;88.55;102257.05;107124;1272;59690;-81
2022/11/28 05:56:12;;;;;;;57.70;26.30;;;;;;;1.15;88.38;102250.95;107128;1267;64230;-81
2022/11/28 05:58:41;;;;;;;72.30;32.30;;;;;;;1.03;88.54;102248.98;107243;1265;69567;-81
2022/11/28 06:01:12;;;;;;;84.50;35.10;;;;;;;1.13;88.54;102250.80;107164;1271;67924;-81
2022/11/28 06:03:42;;;;;;;32.20;14.70;;;;;;;1.15;88.03;102250.61;107335;1262;72867;-83
2022/11/28 06:06:18;;;;;;;41.20;20.80;;;;;;;1.18;88.11;102254.02;107170;1270;61272;-81
2022/11/28 06:08:50;;;;;;;38.00;18.40;;;;;;;1.21;88.18;102253.13;107261;1267;60976;-81
2022/11/28 06:11:22;;;;;;;33.20;15.20;;;;;;;1.19;87.89;102249.71;107228;1263;73719;-82
2022/11/28 06:13:51;;;;;;;53.50;26.60;;;;;;;1.17;87.67;102248.02;107178;1262;70746;-80
2022/11/28 06:16:24;;;;;;;41.30;21.20;;;;;;;1.18;87.59;102256.77;107140;1271;71314;-81
2022/11/28 06:18:58;;;;;;;29.50;16.80;;;;;;;1.16;87.33;102260.38;107089;1274;74286;-81
2022/11/28 06:21:29;;;;;;;40.40;20.90;;;;;;;1.18;86.97;102264.83;107137;1271;61961;-80
2022/11/28 06:23:59;;;;;;;37.30;19.60;;;;;;;1.15;86.49;102265.71;107148;1270;60927;-82
2022/11/28 06:26:28;;;;;;;31.40;16.00;;;;;;;1.29;87.12;102267.65;107097;1270;73504;-81
2022/11/28 06:28:57;;;;;;;35.10;17.20;;;;;;;1.30;87.19;102266.44;107179;1272;61290;-79
2022/11/28 06:31:28;;;;;;;30.90;15.40;;;;;;;1.34;87.13;102266.41;107223;1270;69162;-81
2022/11/28 06:33:58;;;;;;;31.30;16.40;;;;;;;1.32;86.81;102263.51;107077;1265;73711;-80
2022/11/28 06:36:26;;;;;;;36.50;16.50;;;;;;;1.39;86.95;102266.52;107243;1265;61773;-81
2022/11/28 06:38:55;;;;;;;30.20;14.80;;;;;;;1.39;86.59;102262.41;107281;1265;59593;-78
2022/11/28 06:41:24;;;;;;;32.00;15.10;;;;;;;1.47;86.59;102263.19;106417;1264;1253959;-80
2022/11/28 06:43:53;;;;;;;33.70;15.90;;;;;;;1.46;86.31;102263.55;107436;1259;72103;-80
2022/11/28 06:46:23;;;;;;;34.30;17.90;;;;;;;1.51;86.46;102264.35;107281;1265;70417;-80
2022/11/28 06:48:52;;;;;;;43.00;21.70;;;;;;;1.42;85.84;102261.52;107212;1271;72919;-81
2022/11/28 06:51:21;;;;;;;31.80;16.80;;;;;;;1.48;86.13;102266.45;107219;1275;61901;-81
2022/11/28 06:53:50;;;;;;;29.70;16.00;;;;;;;1.52;86.02;102262.45;107413;1265;57504;-81
2022/11/28 06:56:19;;;;;;;29.40;14.60;;;;;;;1.55;86.24;102260.69;107243;1266;72753;-81
2022/11/28 06:58:57;;;;;;;31.20;15.10;;;;;;;1.59;86.14;102257.90;107327;1267;61429;-82
2022/11/28 07:01:29;;;;;;;31.70;15.20;;;;;;;1.64;86.25;102256.14;107194;1263;69446;-80
2022/11/28 07:04:00;;;;;;;31.50;15.90;;;;;;;1.65;85.55;102257.16;107072;1265;72317;-82
2022/11/28 07:06:29;;;;;;;27.30;15.10;;;;;;;1.69;85.81;102251.96;107123;1263;62176;-78
2022/11/28 07:08:58;;;;;;;33.10;17.00;;;;;;;1.75;86.04;102250.87;107004;1271;61780;-80
2022/11/28 07:11:30;;;;;;;27.40;11.70;;;;;;;1.80;85.49;102249.60;107161;1264;74204;-81
2022/11/28 07:14:01;;;;;;;30.60;16.00;;;;;;;1.86;85.27;102248.68;107075;1265;71765;-80
2022/11/28 07:16:32;;;;;;;25.30;13.50;;;;;;;1.85;83.36;102243.70;107213;1268;69243;-82
2022/11/28 07:19:01;;;;;;;32.90;16.70;;;;;;;1.87;82.90;102236.45;107219;1267;73638;-82
2022/11/28 07:21:31;;;;;;;26.50;13.10;;;;;;;2.05;83.58;102230.59;107249;1267;59274;-80
2022/11/28 07:23:59;;;;;;;32.10;15.70;;;;;;;2.10;83.74;102228.10;107129;1265;60400;-81
2022/11/28 07:26:29;;;;;;;23.20;12.30;;;;;;;2.17;83.11;102233.36;107283;1260;72673;-80
2022/11/28 07:28:58;;;;;;;38.80;20.90;;;;;;;2.16;82.92;102234.39;107461;1265;69698;-79
2022/11/28 07:31:30;;;;;;;26.60;12.20;;;;;;;2.08;81.69;102238.09;107305;1258;68714;-81
2022/11/28 07:34:02;;;;;;;27.50;14.40;;;;;;;2.16;81.70;102242.65;107263;1265;72971;-79
2022/11/28 07:36:31;;;;;;;28.50;14.70;;;;;;;2.29;82.29;102242.64;107225;1269;61362;-81
2022/11/28 07:39:02;;;;;;;23.90;12.20;;;;;;;2.34;81.26;102241.38;107272;1265;61882;-76
2022/11/28 07:41:31;;;;;;;22.10;12.70;;;;;;;2.35;80.23;102241.17;107284;1267;74033;-78
2022/11/28 07:44:02;;;;;;;23.30;12.50;;;;;;;2.36;79.90;102241.34;107363;1263;71071;-74
2022/11/28 07:46:32;;;;;;;24.80;12.50;;;;;;;2.37;79.89;102244.76;107117;1270;71055;-77
2022/11/28 07:49:02;;;;;;;25.00;12.70;;;;;;;2.44;80.54;102240.19;107238;1265;73373;-75
2022/11/28 07:51:32;;;;;;;24.50;13.30;;;;;;;2.31;80.06;102244.33;107229;1271;61760;-77
2022/11/28 07:54:03;;;;;;;26.60;13.20;;;;;;;2.40;80.49;102241.80;107212;1262;61776;-74
2022/11/28 07:56:35;;;;;;;27.50;13.50;;;;;;;2.33;80.51;102241.22;107128;1265;71503;-78
2022/11/28 07:59:24;;;;;;;27.80;15.60;;;;;;;2.35;80.76;102240.16;107306;1262;61704;-78
2022/11/28 08:01:53;;;;;;;23.90;13.00;;;;;;;2.30;81.41;102244.87;107259;1262;68675;-76
2022/11/28 08:04:21;;;;;;;24.30;13.50;;;;;;;2.32;81.52;102241.56;107269;1268;73084;-76
2022/11/28 08:06:51;;;;;;;29.20;14.50;;;;;;;2.36;81.58;102238.58;107285;1265;59577;-78
2022/11/28 08:09:20;;;;;;;28.10;14.50;;;;;;;2.39;81.67;102237.00;107297;1270;60912;-76
2022/11/28 08:11:51;;;;;;;32.00;15.60;;;;;;;2.29;82.32;102238.16;107322;1271;73537;-76
2022/11/28 08:14:20;;;;;;;32.10;14.80;;;;;;;2.41;82.40;102242.13;107441;1269;72049;-76
2022/11/28 08:16:48;;;;;;;32.80;16.90;;;;;;;2.38;82.26;102237.17;107313;1265;69805;-78
2022/11/28 08:19:17;;;;;;;32.50;16.60;;;;;;;2.43;82.49;102235.41;107301;1274;71931;-77
2022/11/28 08:21:52;;;;;;;34.60;18.10;;;;;;;2.51;82.18;102236.48;107340;1271;60431;-77
2022/11/28 08:24:20;;;;;;;33.30;16.60;;;;;;;2.47;82.59;102233.78;107323;1264;61579;-77
2022/11/28 08:26:49;;;;;;;34.20;17.90;;;;;;;2.53;82.33;102234.73;107339;1273;72066;-78
2022/11/28 08:29:18;;;;;;;38.70;17.00;;;;;;;2.57;82.44;102231.92;107454;1263;70349;-78
2022/11/28 08:31:47;;;;;;;30.30;15.80;;;;;;;2.68;82.47;102231.24;107316;1264;69728;-79
2022/11/28 08:34:15;;;;;;;34.40;16.40;;;;;;;2.51;83.04;102227.02;107295;1265;71796;-77
2022/11/28 08:36:46;;;;;;;32.50;16.50;;;;;;;2.60;83.38;102227.58;107413;1263;59062;-78
2022/11/28 08:39:14;;;;;;;27.90;15.40;;;;;;;2.72;83.23;102222.74;107325;1260;61045;-78
2022/11/28 08:41:57;;;;;;;32.40;16.60;;;;;;;2.78;83.09;102223.70;107326;1265;73543;-78
2022/11/28 08:44:27;;;;;;;32.00;14.90;;;;;;;2.79;82.96;102221.42;107320;1269;61280;-78
2022/11/28 08:46:58;;;;;;;32.20;15.30;;;;;;;2.88;83.34;102215.79;107327;1271;69692;-78
2022/11/28 08:49:26;;;;;;;31.30;15.10;;;;;;;2.85;82.93;102213.08;107372;1262;74468;-77
2022/11/28 08:51:55;;;;;;;26.10;13.20;;;;;;;2.73;83.15;102209.84;107310;1264;57038;-78
2022/11/28 08:54:23;;;;;;;30.20;14.20;;;;;;;2.83;82.99;102204.69;107296;1270;61317;-78
2022/11/28 08:56:52;;;;;;;24.90;14.50;;;;;;;2.85;82.67;102203.45;107281;1271;62664;-76
2022/11/28 08:59:21;;;;;;;26.30;14.30;;;;;;;2.81;83.19;102201.79;107382;1262;60935;-77
2022/11/28 09:01:53;;;;;;;52.30;32.00;;;;;;;2.73;83.76;102202.09;107314;1265;70593;-77
2022/11/28 09:04:22;;;;;;;33.10;17.00;;;;;;;2.85;83.25;102197.59;107226;1267;63205;-76
2022/11/28 09:06:51;;;;;;;26.90;13.90;;;;;;;2.88;82.82;102192.58;107268;1271;61273;-78
2022/11/28 09:09:20;;;;;;;28.10;14.90;;;;;;;3.01;82.72;102190.61;107275;1271;57701;-78
2022/11/28 09:11:49;;;;;;;33.60;13.70;;;;;;;2.99;83.19;102183.08;107301;1265;62306;-78
2022/11/28 09:14:18;;;;;;;26.00;13.60;;;;;;;3.05;82.40;102178.84;107448;1259;60852;-76
2022/11/28 09:16:47;;;;;;;27.20;13.60;;;;;;;3.02;82.41;102180.08;107256;1263;69706;-76
2022/11/28 09:19:16;;;;;;;36.30;15.60;;;;;;;3.05;82.41;102181.94;107335;1264;74327;-78
2022/11/28 09:21:44;;;;;;;30.30;15.30;;;;;;;3.02;82.66;102179.07;107266;1274;60043;-76
2022/11/28 09:24:13;;;;;;;26.10;13.70;;;;;;;2.98;82.69;102180.84;107336;1270;57158;-78
2022/11/28 09:26:42;;;;;;;29.20;13.60;;;;;;;3.00;82.72;102173.07;107295;1274;72973;-78
2022/11/28 09:29:10;;;;;;;29.80;14.60;;;;;;;2.78;83.36;102176.38;107337;1262;62702;-77
2022/11/28 09:31:39;;;;;;;29.00;14.30;;;;;;;2.70;84.13;102173.06;107346;1265;59023;-80
2022/11/28 09:34:14;;;;;;;30.50;15.20;;;;;;;2.78;83.57;102170.17;107296;1262;62520;-78
2022/11/28 09:36:43;;;;;;;30.20;14.30;;;;;;;2.76;83.68;102161.78;107259;1271;61854;-77
2022/11/28 09:39:12;;;;;;;27.60;14.40;;;;;;;2.81;83.89;102158.42;107290;1270;57102;-78
2022/11/28 09:42:21;;;;;;;27.50;14.30;;;;;;;2.86;83.61;102156.79;107301;1271;72817;-77
2022/11/28 09:44:57;;;;;;;34.10;14.60;;;;;;;2.86;84.07;102152.15;107380;1263;72568;-77
2022/11/28 09:47:33;;;;;;;26.50;11.80;;;;;;;2.86;83.78;102150.42;107248;1268;60334;-77
2022/11/28 09:50:09;;;;;;;26.20;12.20;;;;;;;2.83;83.25;102148.24;107249;1268;64109;-78
2022/11/28 09:52:59;;;;;;;27.70;12.60;;;;;;;2.82;83.61;102148.27;107332;1271;57543;-76
2022/11/28 09:55:43;;;;;;;27.00;11.70;;;;;;;3.00;83.45;102142.96;107291;1266;57736;-77
2022/11/28 09:58:38;;;;;;;23.40;12.20;;;;;;;2.98;82.99;102137.31;107237;1271;72994;-78
2022/11/28 10:01:18;;;;;;;23.40;11.90;;;;;;;2.80;83.23;102134.70;107384;1265;61641;-76
2022/11/28 10:04:50;;;;;;;22.40;10.80;;;;;;;2.82;83.05;102133.98;107350;1258;71291;-76
2022/11/28 10:07:41;;;;;;;23.30;10.60;;;;;;;2.89;83.07;102130.58;107113;1267;63483;-78
2022/11/28 10:10:36;;;;;;;47.80;14.50;;;;;;;2.92;84.63;102134.66;107141;1265;57592;-77
2022/11/28 10:13:36;;;;;;;26.40;11.10;;;;;;;3.02;83.98;102129.14;107179;1265;57675;-76
2022/11/28 10:16:53;;;;;;;23.70;10.90;;;;;;;3.04;82.04;102126.70;107122;1265;63021;-77
2022/11/28 10:20:03;;;;;;;75.00;15.90;;;;;;;2.98;84.11;102123.54;107177;1269;61602;-77
2022/11/28 10:22:50;;;;;;;35.30;12.10;;;;;;;3.32;90.86;102118.09;107130;1270;69863;-76
2022/11/28 10:25:35;;;;;;;62.70;15.50;;;;;;;3.22;85.80;102115.69;107064;1268;62377;-77
2022/11/28 10:28:12;;;;;;;92.60;20.10;;;;;;;3.24;86.95;102115.14;107133;1274;62097;-79
2022/11/28 10:30:47;;;;;;;116.40;22.30;;;;;;;3.38;88.18;102114.15;107126;1261;61863;-77
2022/11/28 10:33:30;;;;;;;30.20;12.00;;;;;;;3.60;88.21;102108.20;107100;1273;72536;-77
2022/11/28 10:36:01;;;;;;;26.20;11.50;;;;;;;3.28;81.41;102103.86;107182;1258;61495;-75
2022/11/28 10:38:33;;;;;;;28.30;13.30;;;;;;;2.98;82.02;102107.02;107111;1271;70499;-76
2022/11/28 10:41:27;;;;;;;23.30;11.70;;;;;;;2.97;82.10;102108.23;107149;1274;62818;-76
2022/11/28 10:44:17;;;;;;;26.10;12.00;;;;;;;3.08;81.94;102100.63;107272;1265;57682;-77
2022/11/28 10:47:04;;;;;;;26.60;12.20;;;;;;;3.14;81.26;102094.31;107093;1274;61228;-78
2022/11/28 10:49:47;;;;;;;20.70;11.40;;;;;;;3.07;81.33;102097.90;107131;1267;63774;-77
2022/11/28 10:52:28;;;;;;;22.00;11.40;;;;;;;3.14;80.83;102090.19;107314;1269;61580;-79
2022/11/28 10:55:50;;;;;;;22.70;10.70;;;;;;;3.16;80.76;102087.91;107179;1262;69674;-79
2022/11/28 10:59:06;;;;;;;25.90;13.10;;;;;;;3.17;80.19;102085.13;107187;1270;73152;-76
2022/11/28 11:01:39;;;;;;;32.80;12.60;;;;;;;3.24;80.49;102083.10;106830;1271;57679;-77
2022/11/28 11:04:27;;;;;;;26.30;12.20;;;;;;;3.12;80.39;102086.11;107176;1270;59829;-76
2022/11/28 11:07:22;;;;;;;27.70;12.30;;;;;;;3.07;80.35;102082.58;107141;1262;64482;-77
2022/11/28 11:10:16;;;;;;;21.40;11.20;;;;;;;3.16;80.58;102082.06;107299;1262;72167;-77
2022/11/28 11:12:49;;;;;;;25.80;12.10;;;;;;;3.12;80.91;102076.29;107300;1271;60324;-77
2022/11/28 11:15:31;;;;;;;26.70;12.50;;;;;;;3.19;80.59;102079.07;107266;1265;73088;-76
2022/11/28 11:18:18;;;;;;;26.20;12.80;;;;;;;3.17;80.46;102075.67;107297;1271;60268;-78
2022/11/28 11:20:47;;;;;;;23.60;12.10;;;;;;;3.23;80.62;102075.22;107084;1273;57669;-76
2022/11/28 11:23:20;;;;;;;30.70;13.50;;;;;;;3.15;80.40;102075.70;107233;1274;72722;-78
2022/11/28 11:25:57;;;;;;;24.90;12.30;;;;;;;3.19;80.39;102076.16;107196;1259;71255;-78
2022/11/28 11:28:39;;;;;;;25.50;11.50;;;;;;;3.23;79.71;102072.27;107112;1271;70531;-76
2022/11/28 11:31:32;;;;;;;24.80;12.50;;;;;;;3.27;79.12;102075.29;107243;1265;63917;-78
2022/11/28 11:34:11;;;;;;;23.60;12.30;;;;;;;3.28;79.42;102069.27;107220;1271;62238;-78
2022/11/28 11:36:40;;;;;;;27.70;13.20;;;;;;;2.99;80.44;102070.67;107216;1274;57812;-77
2022/11/28 11:39:09;;;;;;;22.40;12.60;;;;;;;3.02;80.09;102066.66;107287;1266;73503;-77
2022/11/28 11:41:48;;;;;;;25.70;12.50;;;;;;;2.86;80.27;102069.38;107375;1268;62007;-76
2022/11/28 11:44:33;;;;;;;27.50;13.20;;;;;;;2.89;81.05;102070.03;107218;1274;60066;-78
2022/11/28 11:47:08;;;;;;;23.50;13.20;;;;;;;3.00;80.76;102068.78;107157;1269;63314;-78
2022/11/28 11:49:43;;;;;;;27.30;14.00;;;;;;;3.06;80.24;102065.05;107233;1271;61148;-78
2022/11/28 11:52:12;;;;;;;91.50;20.70;;;;;;;3.09;80.71;102064.81;107205;1270;57590;-77
2022/11/28 11:54:56;;;;;;;31.90;13.30;;;;;;;3.14;79.92;102063.67;107255;1273;73594;-77